Time;durP1;ratioP1;P1;durP2;ratioP2;P2;SDS_P1;SDS_P2;PMS_P1;PMS_P2;Temp;Humidity;BMP_temperature;BMP_pressure;BME280_temperature;BME280_humidity;BME280_pressure;Samples;Min_cycle;Max_cycle;Signal;HPM_P1;HPM_P2
2023/03/21 00:00:19;;;;;;;26.27;17.08;;;10.20;99.90;;;;;;5013521;28;20048;-86
2023/03/21 00:02:45;;;;;;;24.25;16.23;;;10.20;99.90;;;;;;5011138;28;20422;-87
2023/03/21 00:05:10;;;;;;;25.23;17.73;;;10.10;99.90;;;;;;5003383;28;20453;-86
2023/03/21 00:07:36;;;;;;;24.77;15.82;;;10.10;99.90;;;;;;5009225;28;20030;-86
2023/03/21 00:10:01;;;;;;;27.02;16.20;;;10.10;99.90;;;;;;5012157;28;20160;-87
2023/03/21 00:12:31;;;;;;;24.92;15.60;;;10.10;99.90;;;;;;5011282;28;20403;-87
2023/03/21 00:15:04;;;;;;;31.13;16.88;;;10.20;99.90;;;;;;5007854;28;20026;-86
2023/03/21 00:17:31;;;;;;;21.63;15.77;;;10.20;99.90;;;;;;5008023;28;20022;-86
2023/03/21 00:20:03;;;;;;;28.20;17.48;;;10.10;99.90;;;;;;5001461;28;20444;-86
2023/03/21 00:22:29;;;;;;;27.30;16.27;;;10.20;99.90;;;;;;5013188;28;20038;-86
2023/03/21 00:24:54;;;;;;;26.48;16.83;;;10.20;99.90;;;;;;5014764;28;20518;-87
2023/03/21 00:27:20;;;;;;;22.38;15.55;;;10.20;99.90;;;;;;5008273;28;20046;-87
2023/03/21 00:29:48;;;;;;;27.98;17.20;;;10.20;99.90;;;;;;5011900;28;20448;-86
2023/03/21 00:32:14;;;;;;;26.98;18.40;;;10.20;99.90;;;;;;5007283;28;20098;-87
2023/03/21 00:34:41;;;;;;;26.30;17.13;;;10.10;99.90;;;;;;5001570;28;20479;-86
2023/03/21 00:37:07;;;;;;;26.90;17.80;;;10.10;99.90;;;;;;5003881;28;20504;-86
2023/03/21 00:39:34;;;;;;;26.02;16.70;;;10.20;99.90;;;;;;5009291;28;20045;-86
2023/03/21 00:42:00;;;;;;;23.55;17.38;;;10.10;99.90;;;;;;5009301;28;20033;-86
2023/03/21 00:44:25;;;;;;;26.08;16.92;;;10.10;99.90;;;;;;5009083;28;20031;-87
2023/03/21 00:46:51;;;;;;;22.73;15.75;;;10.10;99.90;;;;;;5006999;28;20038;-86
2023/03/21 00:49:19;;;;;;;27.80;16.88;;;10.10;99.90;;;;;;5012633;28;20402;-86
2023/03/21 00:51:44;;;;;;;24.92;17.25;;;10.10;99.90;;;;;;5013795;28;20022;-86
2023/03/21 00:54:11;;;;;;;26.88;16.90;;;10.10;99.90;;;;;;5012015;28;20085;-84
2023/03/21 00:56:37;;;;;;;23.83;16.15;;;10.10;99.90;;;;;;5010347;28;20049;-86
2023/03/21 00:59:03;;;;;;;24.50;15.75;;;10.10;99.90;;;;;;5022901;28;20379;-87
2023/03/21 01:01:30;;;;;;;24.98;16.77;;;10.10;99.90;;;;;;5006950;28;20034;-86
2023/03/21 01:04:06;;;;;;;23.95;16.05;;;10.10;99.90;;;;;;5008207;28;20037;-87
2023/03/21 01:06:38;;;;;;;26.02;15.65;;;10.00;99.90;;;;;;4998743;28;20428;-87
2023/03/21 01:09:04;;;;;;;26.55;15.70;;;10.00;99.90;;;;;;5011189;28;20490;-86
2023/03/21 01:11:30;;;;;;;23.42;15.63;;;10.00;99.90;;;;;;5010573;28;20037;-87
2023/03/21 01:13:56;;;;;;;23.15;15.07;;;9.90;99.90;;;;;;5004240;28;20026;-87
2023/03/21 01:16:23;;;;;;;25.50;15.70;;;9.90;99.90;;;;;;5000382;28;20053;-86
2023/03/21 01:18:48;;;;;;;25.20;15.77;;;9.80;99.90;;;;;;5013429;28;20500;-86
2023/03/21 01:21:14;;;;;;;25.02;15.60;;;9.90;99.90;;;;;;5011690;28;20026;-87
2023/03/21 01:23:41;;;;;;;25.45;15.52;;;9.90;99.90;;;;;;5029072;28;20049;-86
2023/03/21 01:26:08;;;;;;;24.70;15.20;;;9.90;99.90;;;;;;5008709;28;20026;-87
2023/03/21 01:28:35;;;;;;;27.65;15.25;;;9.90;99.90;;;;;;5003540;28;20065;-86
2023/03/21 01:31:03;;;;;;;23.52;15.55;;;9.80;99.90;;;;;;5009352;28;20030;-85
2023/03/21 01:33:30;;;;;;;25.15;14.65;;;9.80;99.90;;;;;;5007730;28;20034;-86
2023/03/21 01:35:56;;;;;;;26.50;15.35;;;9.80;99.90;;;;;;5012161;28;20061;-86
2023/03/21 01:38:22;;;;;;;25.85;15.07;;;9.80;99.90;;;;;;5012175;28;20065;-86
2023/03/21 01:40:50;;;;;;;25.52;15.60;;;9.80;99.90;;;;;;5008798;28;20023;-86
2023/03/21 01:43:22;;;;;;;24.65;16.25;;;9.80;99.90;;;;;;5008119;28;20026;-85
2023/03/21 01:46:22;;;;;;;27.70;16.38;;;9.80;99.90;;;;;;5011906;28;20064;-86
2023/03/21 01:48:53;;;;;;;25.30;15.80;;;9.80;99.90;;;;;;5002184;28;20046;-86
2023/03/21 01:51:22;;;;;;;26.95;16.05;;;9.80;99.90;;;;;;5010975;28;20084;-86
2023/03/21 01:53:47;;;;;;;28.30;16.98;;;9.80;99.90;;;;;;5008351;28;20040;-86
2023/03/21 01:56:27;;;;;;;27.65;17.08;;;9.80;99.90;;;;;;5008706;28;20050;-87
2023/03/21 01:58:56;;;;;;;27.55;16.65;;;9.80;99.90;;;;;;5024603;28;20074;-86
2023/03/21 02:01:22;;;;;;;27.13;17.90;;;9.70;99.90;;;;;;5008423;28;20390;-85
2023/03/21 02:03:50;;;;;;;35.05;17.88;;;9.80;99.90;;;;;;5007704;28;20030;-86
2023/03/21 02:06:57;;;;;;;33.17;18.08;;;9.70;99.90;;;;;;5009170;28;20022;-86
2023/03/21 02:09:27;;;;;;;34.15;18.52;;;9.80;99.90;;;;;;4997555;28;20110;-86
2023/03/21 02:11:54;;;;;;;28.65;16.88;;;9.70;99.90;;;;;;5007891;28;20026;-85
2023/03/21 02:14:20;;;;;;;28.02;17.50;;;9.70;99.90;;;;;;5011711;28;20040;-85
2023/03/21 02:16:58;;;;;;;32.47;17.58;;;9.70;99.90;;;;;;5009490;28;20033;-86
2023/03/21 02:19:23;;;;;;;29.55;18.13;;;9.70;99.90;;;;;;5004804;28;20096;-86
2023/03/21 02:22:13;;;;;;;30.20;19.10;;;9.70;99.90;;;;;;4996428;28;20109;-86
2023/03/21 02:25:00;;;;;;;31.00;19.40;;;9.70;99.90;;;;;;5027702;28;20409;-87
2023/03/21 02:27:30;;;;;;;32.58;20.30;;;9.70;99.90;;;;;;5011099;28;20083;-86
2023/03/21 02:30:14;;;;;;;29.10;18.85;;;9.70;99.90;;;;;;5013213;28;20053;-87
2023/03/21 02:32:58;;;;;;;33.28;19.38;;;9.70;99.90;;;;;;5001726;28;20054;-87
2023/03/21 02:35:26;;;;;;;33.63;18.92;;;9.70;99.90;;;;;;5011712;28;20048;-86
2023/03/21 02:38:20;;;;;;;31.83;18.55;;;9.80;99.90;;;;;;5008416;28;20018;-86
2023/03/21 02:40:57;;;;;;;32.10;18.20;;;9.80;99.90;;;;;;5020747;28;20105;-86
2023/03/21 02:43:35;;;;;;;31.08;20.00;;;9.80;99.90;;;;;;5010629;28;20088;-86
2023/03/21 02:46:14;;;;;;;30.70;19.45;;;9.80;99.90;;;;;;5007912;28;20545;-86
2023/03/21 02:49:00;;;;;;;28.67;18.10;;;9.80;99.90;;;;;;4997323;28;20034;-87
2023/03/21 02:51:28;;;;;;;28.08;18.50;;;9.80;99.90;;;;;;5010883;28;20041;-87
2023/03/21 02:54:21;;;;;;;30.48;18.08;;;9.70;99.90;;;;;;5012513;28;20140;-86
2023/03/21 02:56:49;;;;;;;27.20;17.67;;;9.80;99.90;;;;;;5004100;28;20070;-86
2023/03/21 02:59:16;;;;;;;29.92;17.90;;;9.80;99.90;;;;;;5004151;28;20121;-87
2023/03/21 03:01:42;;;;;;;30.88;18.23;;;9.80;99.90;;;;;;5006413;28;20478;-86
2023/03/21 03:04:19;;;;;;;36.95;19.10;;;9.80;99.90;;;;;;5007273;28;20101;-87
2023/03/21 03:06:56;;;;;;;35.33;16.92;;;9.80;99.90;;;;;;4998913;28;20038;-87
2023/03/21 03:09:27;;;;;;;28.88;16.98;;;9.80;99.90;;;;;;4995760;28;20025;-86
2023/03/21 03:12:05;;;;;;;29.65;16.35;;;9.80;99.90;;;;;;5010901;28;20497;-86
2023/03/21 03:14:41;;;;;;;31.85;16.15;;;9.80;99.90;;;;;;5017181;28;20025;-87
2023/03/21 03:17:10;;;;;;;31.45;15.43;;;9.80;99.90;;;;;;5008103;28;20486;-87
2023/03/21 03:20:05;;;;;;;31.05;14.82;;;9.80;99.90;;;;;;5012392;28;20088;-86
2023/03/21 03:22:58;;;;;;;30.90;15.73;;;9.80;99.90;;;;;;4990385;28;20030;-87
2023/03/21 03:25:48;;;;;;;31.50;14.00;;;9.80;99.90;;;;;;5005381;28;20032;-87
2023/03/21 03:28:18;;;;;;;30.40;13.85;;;9.80;99.90;;;;;;5002418;28;20046;-86
2023/03/21 03:30:46;;;;;;;29.42;14.80;;;9.70;99.90;;;;;;5006319;28;20031;-87
2023/03/21 03:33:15;;;;;;;28.90;13.15;;;9.70;99.90;;;;;;5010102;28;20121;-86
2023/03/21 03:35:43;;;;;;;28.08;13.50;;;9.70;99.90;;;;;;5005778;28;20053;-87
2023/03/21 03:38:11;;;;;;;30.60;13.70;;;9.70;99.90;;;;;;5013187;28;20045;-87
2023/03/21 03:40:47;;;;;;;25.08;12.70;;;9.70;99.90;;;;;;5005443;28;20483;-86
2023/03/21 03:43:20;;;;;;;25.60;11.98;;;9.70;99.90;;;;;;5010664;28;20458;-86
2023/03/21 03:45:55;;;;;;;26.45;11.50;;;9.60;99.90;;;;;;5009334;28;20057;-86
2023/03/21 03:48:28;;;;;;;24.85;11.13;;;9.60;99.90;;;;;;4998475;28;20053;-87
2023/03/21 03:51:02;;;;;;;27.20;11.57;;;9.70;99.90;;;;;;5007671;28;20057;-87
2023/03/21 03:53:34;;;;;;;23.02;11.32;;;9.60;99.90;;;;;;4999375;28;20046;-87
2023/03/21 03:56:00;;;;;;;22.80;11.43;;;9.60;99.90;;;;;;5007586;28;20113;-86
2023/03/21 03:58:26;;;;;;;22.38;10.07;;;9.50;99.90;;;;;;5010632;28;20034;-87
2023/03/21 04:00:54;;;;;;;23.33;11.35;;;9.50;99.90;;;;;;5006608;28;20483;-85
2023/03/21 04:03:19;;;;;;;24.45;11.57;;;9.50;99.90;;;;;;4993094;28;20026;-87
2023/03/21 04:05:45;;;;;;;20.00;11.23;;;9.50;99.90;;;;;;4998498;28;20509;-86
2023/03/21 04:08:12;;;;;;;24.58;11.65;;;9.50;99.90;;;;;;5006829;28;20119;-87
2023/03/21 04:10:39;;;;;;;21.77;9.90;;;9.50;99.90;;;;;;5005866;28;20164;-87
2023/03/21 04:13:05;;;;;;;17.83;9.77;;;9.50;99.90;;;;;;5002593;28;20069;-86
2023/03/21 04:15:31;;;;;;;21.58;10.15;;;9.50;99.90;;;;;;5004768;28;20076;-86
2023/03/21 04:17:56;;;;;;;26.30;10.93;;;9.60;99.90;;;;;;5009953;28;20053;-86
2023/03/21 04:20:22;;;;;;;21.80;10.73;;;9.60;99.90;;;;;;5009684;28;20030;-87
2023/03/21 04:22:48;;;;;;;28.23;11.88;;;9.60;99.90;;;;;;5009400;28;20041;-86
2023/03/21 04:25:14;;;;;;;21.77;10.98;;;9.60;99.90;;;;;;5005837;28;20031;-86
2023/03/21 04:27:39;;;;;;;26.13;10.90;;;9.60;99.90;;;;;;5004329;28;20038;-87
2023/03/21 04:30:06;;;;;;;19.58;10.13;;;9.60;99.90;;;;;;5005885;28;20050;-86
2023/03/21 04:32:32;;;;;;;24.85;11.20;;;9.50;99.90;;;;;;5008295;28;20030;-86
2023/03/21 04:34:59;;;;;;;23.08;10.52;;;9.50;99.90;;;;;;5011063;28;20112;-87
2023/03/21 04:37:24;;;;;;;21.60;10.75;;;9.50;99.90;;;;;;5013713;28;20112;-86
2023/03/21 04:39:50;;;;;;;21.55;10.27;;;9.50;99.90;;;;;;5015012;28;20480;-86
2023/03/21 04:42:20;;;;;;;20.42;10.80;;;9.50;99.90;;;;;;5008400;28;20034;-86
2023/03/21 04:44:47;;;;;;;21.38;11.13;;;9.50;99.90;;;;;;5006732;28;20026;-86
2023/03/21 04:47:14;;;;;;;22.83;10.52;;;9.50;99.90;;;;;;5009364;28;20196;-87
2023/03/21 04:49:41;;;;;;;20.70;10.57;;;9.50;99.90;;;;;;5010632;28;20049;-87
2023/03/21 04:52:06;;;;;;;20.13;10.23;;;9.50;99.90;;;;;;5012840;28;20450;-87
2023/03/21 04:54:32;;;;;;;23.88;9.80;;;9.60;99.90;;;;;;5010343;28;20113;-86
2023/03/21 04:56:58;;;;;;;19.13;8.68;;;9.50;99.90;;;;;;5004070;28;20491;-87
2023/03/21 04:59:24;;;;;;;20.45;10.77;;;9.50;99.90;;;;;;5013620;28;20026;-87
2023/03/21 05:01:50;;;;;;;23.55;10.73;;;9.50;99.90;;;;;;5013118;28;20103;-88
2023/03/21 05:04:18;;;;;;;20.13;10.15;;;9.50;99.90;;;;;;5012009;28;20495;-88
2023/03/21 05:06:45;;;;;;;22.25;9.82;;;9.50;99.90;;;;;;5002834;28;20383;-87
2023/03/21 05:09:12;;;;;;;22.10;9.93;;;9.50;99.90;;;;;;5009084;28;20030;-86
2023/03/21 05:11:39;;;;;;;18.75;9.40;;;9.50;99.90;;;;;;5009181;28;20041;-87
2023/03/21 05:14:09;;;;;;;18.40;8.73;;;9.50;99.90;;;;;;5010225;28;20048;-87
2023/03/21 05:16:37;;;;;;;25.25;9.13;;;9.50;99.90;;;;;;5013462;28;20026;-86
2023/03/21 05:19:03;;;;;;;25.08;10.05;;;9.50;99.90;;;;;;5010192;28;20085;-87
2023/03/21 05:21:33;;;;;;;18.88;9.43;;;9.50;99.90;;;;;;5012997;28;20029;-87
2023/03/21 05:24:02;;;;;;;19.40;10.00;;;9.40;99.90;;;;;;5030177;28;20056;-87
2023/03/21 05:26:28;;;;;;;26.08;10.05;;;9.40;99.90;;;;;;5029630;28;20084;-86
2023/03/21 05:28:54;;;;;;;24.27;9.77;;;9.40;99.90;;;;;;5014158;28;20025;-86
2023/03/21 05:31:20;;;;;;;21.90;10.45;;;9.40;99.90;;;;;;5010584;28;20026;-87
2023/03/21 05:33:47;;;;;;;20.60;10.10;;;9.50;99.90;;;;;;5009413;28;20048;-87
2023/03/21 05:36:13;;;;;;;24.35;9.98;;;9.40;99.90;;;;;;5009089;28;20029;-86
2023/03/21 05:38:44;;;;;;;23.17;10.63;;;9.40;99.90;;;;;;5010855;28;20053;-87
2023/03/21 05:41:11;;;;;;;25.15;10.25;;;9.40;99.90;;;;;;5010928;28;20026;-87
2023/03/21 05:43:37;;;;;;;24.52;11.68;;;9.40;99.90;;;;;;5012244;28;20026;-87
2023/03/21 05:46:03;;;;;;;24.00;11.32;;;9.40;99.90;;;;;;5013135;28;20022;-87
2023/03/21 05:48:28;;;;;;;19.67;9.32;;;9.50;99.90;;;;;;5015432;28;20046;-87
2023/03/21 05:50:54;;;;;;;19.15;10.25;;;9.50;99.90;;;;;;5012796;28;20037;-87
2023/03/21 05:53:20;;;;;;;23.30;10.07;;;9.50;99.90;;;;;;5007330;28;20057;-87
2023/03/21 05:55:45;;;;;;;25.02;11.25;;;9.50;99.90;;;;;;5010731;28;20019;-86
2023/03/21 05:58:11;;;;;;;20.92;10.23;;;9.50;99.90;;;;;;5005685;28;20084;-87
2023/03/21 06:00:37;;;;;;;18.63;9.57;;;9.50;99.90;;;;;;5011463;28;20026;-87
2023/03/21 06:03:03;;;;;;;18.50;10.15;;;9.50;99.90;;;;;;5010765;28;20030;-86
2023/03/21 06:05:29;;;;;;;21.42;10.27;;;9.60;99.90;;;;;;5025241;28;20038;-88
2023/03/21 06:07:55;;;;;;;22.35;10.15;;;9.50;99.90;;;;;;5010172;28;20045;-86
2023/03/21 06:10:20;;;;;;;25.20;10.45;;;9.50;99.90;;;;;;5013199;28;20026;-88
2023/03/21 06:12:46;;;;;;;22.02;8.98;;;9.50;99.90;;;;;;5011994;28;20399;-87
2023/03/21 06:15:12;;;;;;;22.15;8.70;;;9.50;99.90;;;;;;5007616;28;20092;-87
2023/03/21 06:17:37;;;;;;;20.98;9.88;;;9.50;99.90;;;;;;5000949;28;20026;-85
2023/03/21 06:20:05;;;;;;;17.55;9.25;;;9.50;99.90;;;;;;5003701;28;20485;-87
2023/03/21 06:22:32;;;;;;;20.65;9.18;;;9.60;99.90;;;;;;5016344;28;20028;-87
2023/03/21 06:24:58;;;;;;;20.33;9.68;;;9.50;99.90;;;;;;5015271;28;20026;-87
2023/03/21 06:27:23;;;;;;;18.27;9.25;;;9.60;99.90;;;;;;5015455;28;20030;-87
2023/03/21 06:29:49;;;;;;;24.70;9.90;;;9.60;99.90;;;;;;5029928;28;20040;-87
2023/03/21 06:32:15;;;;;;;20.90;9.02;;;9.60;99.90;;;;;;5012399;28;20394;-87
2023/03/21 06:34:41;;;;;;;21.88;9.18;;;9.60;99.90;;;;;;5012040;28;20028;-85
2023/03/21 06:37:07;;;;;;;18.75;9.88;;;9.70;99.90;;;;;;5012316;28;20026;-87
2023/03/21 06:39:33;;;;;;;17.45;8.30;;;9.70;99.90;;;;;;5024771;28;20029;-87
2023/03/21 06:41:59;;;;;;;18.67;9.68;;;9.70;99.90;;;;;;5013551;28;20060;-86
2023/03/21 06:44:26;;;;;;;19.65;8.20;;;9.70;99.90;;;;;;5010251;28;20030;-87
2023/03/21 06:46:52;;;;;;;19.02;8.55;;;9.70;99.90;;;;;;5024917;28;20049;-88
2023/03/21 06:49:18;;;;;;;15.60;8.45;;;9.80;99.90;;;;;;5016830;28;20021;-88
2023/03/21 06:51:44;;;;;;;21.88;8.38;;;9.80;99.90;;;;;;5010848;28;20804;-87
2023/03/21 06:54:10;;;;;;;21.77;9.07;;;9.90;99.90;;;;;;4994691;28;20030;-87
2023/03/21 06:56:36;;;;;;;18.60;8.52;;;9.90;99.90;;;;;;5002049;28;20044;-88
2023/03/21 06:59:02;;;;;;;14.07;8.60;;;9.90;99.90;;;;;;4995119;28;20030;-88
2023/03/21 07:01:29;;;;;;;23.30;7.90;;;10.00;99.90;;;;;;5010695;28;20033;-88
2023/03/21 07:03:57;;;;;;;17.58;8.05;;;10.00;99.90;;;;;;5012399;28;20034;-88
2023/03/21 07:06:26;;;;;;;20.83;7.95;;;10.00;99.90;;;;;;5010898;28;20391;-87
2023/03/21 07:08:53;;;;;;;19.27;8.02;;;10.10;99.90;;;;;;5011189;28;20034;-87
2023/03/21 07:11:19;;;;;;;17.33;8.07;;;10.10;99.90;;;;;;5006982;28;20029;-88
2023/03/21 07:13:45;;;;;;;16.05;6.70;;;10.10;99.90;;;;;;5014058;28;20034;-89
2023/03/21 07:16:11;;;;;;;17.27;7.00;;;10.20;99.90;;;;;;5011206;28;20033;-88
2023/03/21 07:18:37;;;;;;;17.60;7.20;;;10.30;99.90;;;;;;5011231;28;20391;-88
2023/03/21 07:21:03;;;;;;;16.20;7.00;;;10.30;99.90;;;;;;5009912;28;20036;-89
2023/03/21 07:23:29;;;;;;;16.70;7.22;;;10.30;99.90;;;;;;5001704;28;20434;-89
2023/03/21 07:25:55;;;;;;;14.75;6.30;;;10.30;99.90;;;;;;5010555;28;20088;-88
2023/03/21 07:28:22;;;;;;;14.30;6.30;;;10.40;99.90;;;;;;5011566;28;20067;-88
2023/03/21 07:30:56;;;;;;;17.38;7.20;;;10.40;99.90;;;;;;5011463;28;20032;-88
2023/03/21 07:33:23;;;;;;;19.00;6.82;;;10.40;99.90;;;;;;5007346;28;20532;-87
2023/03/21 07:35:53;;;;;;;16.85;6.70;;;10.40;99.90;;;;;;5008015;28;20030;-89
2023/03/21 07:38:20;;;;;;;16.15;5.65;;;10.40;99.90;;;;;;5006935;28;20030;-88
2023/03/21 07:40:47;;;;;;;16.88;6.32;;;10.40;99.90;;;;;;5007088;28;20026;-86
2023/03/21 07:43:14;;;;;;;15.85;6.72;;;10.40;99.90;;;;;;5002471;28;20356;-87
2023/03/21 07:45:41;;;;;;;13.95;6.22;;;10.40;99.90;;;;;;4992556;28;20030;-88
2023/03/21 07:48:08;;;;;;;18.75;7.05;;;10.40;99.90;;;;;;5006396;28;20057;-85
2023/03/21 07:50:34;;;;;;;15.43;7.05;;;10.40;99.90;;;;;;4999102;28;20062;-88
2023/03/21 07:52:59;;;;;;;13.68;6.57;;;10.50;99.90;;;;;;5025988;28;20061;-88
2023/03/21 07:55:25;;;;;;;17.75;7.45;;;10.50;99.90;;;;;;5008590;28;20061;-87
2023/03/21 07:57:51;;;;;;;20.13;6.70;;;10.50;99.90;;;;;;4991544;28;20507;-88
2023/03/21 08:00:23;;;;;;;15.82;7.00;;;10.50;99.90;;;;;;4995674;28;20048;-88
2023/03/21 08:02:54;;;;;;;14.77;6.28;;;10.50;99.90;;;;;;5011090;28;20034;-86
2023/03/21 08:05:21;;;;;;;17.33;6.90;;;10.60;99.90;;;;;;5010907;28;20397;-88
2023/03/21 08:07:47;;;;;;;19.38;6.97;;;10.50;99.90;;;;;;5012815;28;20042;-88
2023/03/21 08:10:13;;;;;;;17.05;6.90;;;10.60;99.90;;;;;;5030178;28;20030;-87
2023/03/21 08:12:39;;;;;;;15.88;6.32;;;10.60;99.90;;;;;;5012584;28;20041;-88
2023/03/21 08:15:05;;;;;;;14.77;6.68;;;10.60;99.90;;;;;;5005565;28;20058;-86
2023/03/21 08:17:31;;;;;;;13.68;6.80;;;10.60;99.90;;;;;;5000782;28;20558;-87
2023/03/21 08:19:57;;;;;;;15.13;6.28;;;10.60;99.90;;;;;;5025792;28;20117;-87
2023/03/21 08:22:22;;;;;;;17.25;6.38;;;10.70;99.90;;;;;;5012162;28;20034;-88
2023/03/21 08:24:48;;;;;;;15.30;6.13;;;10.70;99.90;;;;;;5002987;28;20115;-87
2023/03/21 08:27:14;;;;;;;16.52;6.45;;;10.70;99.90;;;;;;5006376;28;20184;-89
2023/03/21 08:29:41;;;;;;;12.77;6.78;;;10.80;99.90;;;;;;5009872;28;20026;-87
2023/03/21 08:32:07;;;;;;;14.60;6.30;;;10.80;99.90;;;;;;5015487;28;20041;-88
2023/03/21 08:34:36;;;;;;;19.50;6.47;;;10.90;99.90;;;;;;5008152;28;20045;-88
2023/03/21 08:37:01;;;;;;;22.08;7.60;;;10.90;99.90;;;;;;5012572;28;20030;-88
2023/03/21 08:39:27;;;;;;;14.05;6.50;;;10.90;99.90;;;;;;5018175;28;20026;-88
2023/03/21 08:41:54;;;;;;;15.43;6.65;;;10.90;99.90;;;;;;5014148;28;20386;-87
2023/03/21 08:44:20;;;;;;;15.20;7.55;;;11.00;99.90;;;;;;5012152;28;20124;-87
2023/03/21 08:46:46;;;;;;;17.63;7.03;;;10.90;99.90;;;;;;5009811;28;20498;-88
2023/03/21 08:49:12;;;;;;;15.50;7.80;;;10.90;99.90;;;;;;5003208;28;20034;-87
2023/03/21 08:51:37;;;;;;;17.40;7.47;;;10.90;99.90;;;;;;5011486;28;20092;-86
2023/03/21 08:54:03;;;;;;;14.90;7.63;;;11.00;99.90;;;;;;5028372;28;20430;-88
2023/03/21 08:56:29;;;;;;;15.85;7.82;;;10.90;99.90;;;;;;5009947;28;20046;-88
2023/03/21 08:58:55;;;;;;;16.38;8.00;;;11.00;99.90;;;;;;5010507;28;20025;-88
2023/03/21 09:01:21;;;;;;;14.48;6.70;;;10.90;99.90;;;;;;5009982;28;20113;-88
2023/03/21 09:03:46;;;;;;;14.38;7.15;;;11.00;99.90;;;;;;5004356;28;20649;-88
2023/03/21 09:06:13;;;;;;;15.75;7.45;;;11.00;99.90;;;;;;5008331;28;20031;-88
2023/03/21 09:08:40;;;;;;;17.38;8.15;;;11.00;99.90;;;;;;5009236;28;20060;-87
2023/03/21 09:11:07;;;;;;;18.42;7.35;;;11.00;99.90;;;;;;5013737;28;20022;-85
2023/03/21 09:13:32;;;;;;;18.50;7.53;;;11.00;99.90;;;;;;4998269;28;20030;-85
2023/03/21 09:16:00;;;;;;;13.55;7.40;;;11.10;99.90;;;;;;5006473;28;20072;-86
2023/03/21 09:18:44;;;;;;;18.15;7.72;;;11.10;99.90;;;;;;5007182;28;20525;-87
2023/03/21 09:21:12;;;;;;;15.27;7.65;;;11.20;99.90;;;;;;5010520;28;20030;-87
2023/03/21 09:23:38;;;;;;;18.08;7.88;;;11.10;99.90;;;;;;5011609;28;20060;-87
2023/03/21 09:26:05;;;;;;;16.27;7.63;;;11.20;99.90;;;;;;5012928;28;20479;-86
2023/03/21 09:28:31;;;;;;;19.10;6.80;;;11.10;99.90;;;;;;5008266;28;20125;-87
2023/03/21 09:30:59;;;;;;;16.70;7.90;;;11.10;99.90;;;;;;5029586;28;20033;-86
2023/03/21 09:33:27;;;;;;;13.13;6.68;;;11.10;99.90;;;;;;5013058;28;20033;-86
2023/03/21 09:35:53;;;;;;;16.02;8.43;;;11.00;99.90;;;;;;5000654;28;20027;-86
2023/03/21 09:38:19;;;;;;;17.15;7.75;;;11.00;99.90;;;;;;5010954;28;20045;-87
2023/03/21 09:41:26;;;;;;;19.77;8.02;;;11.10;99.90;;;;;;5008343;28;20029;-87
2023/03/21 09:44:10;;;;;;;14.15;7.78;;;11.10;99.90;;;;;;4987213;28;20738;-86
2023/03/21 09:46:46;;;;;;;17.83;7.75;;;11.20;99.90;;;;;;5013331;28;20061;-87
2023/03/21 09:49:21;;;;;;;13.52;7.55;;;11.30;99.90;;;;;;4996597;28;20081;-88
2023/03/21 09:51:52;;;;;;;15.52;6.88;;;11.30;99.90;;;;;;5010214;28;20049;-87
2023/03/21 09:54:23;;;;;;;13.30;7.05;;;11.40;99.90;;;;;;5005147;28;20030;-88
2023/03/21 09:56:53;;;;;;;11.50;6.97;;;11.50;99.90;;;;;;4999891;28;20054;-85
2023/03/21 09:59:40;;;;;;;12.73;6.63;;;11.60;99.90;;;;;;5008842;28;20061;-86
2023/03/21 10:02:40;;;;;;;12.00;6.28;;;11.70;99.90;;;;;;5007797;28;20037;-89
2023/03/21 10:05:29;;;;;;;10.98;6.00;;;11.80;99.90;;;;;;4970334;28;20553;-87
2023/03/21 10:08:21;;;;;;;12.80;6.72;;;11.90;99.90;;;;;;5002622;28;20039;-87
2023/03/21 10:10:50;;;;;;;12.57;5.28;;;12.00;99.90;;;;;;5006934;28;20036;-87
2023/03/21 10:13:26;;;;;;;12.50;5.72;;;12.00;99.90;;;;;;4997191;28;20034;-86
2023/03/21 10:16:12;;;;;;;13.93;6.35;;;12.10;99.90;;;;;;5002276;28;20073;-87
2023/03/21 10:18:41;;;;;;;14.35;6.78;;;12.10;99.90;;;;;;5003701;28;20030;-86
2023/03/21 10:21:10;;;;;;;9.50;5.07;;;11.90;99.90;;;;;;5017984;28;20037;-86
2023/03/21 10:23:36;;;;;;;12.68;5.63;;;12.00;99.90;;;;;;4998818;28;20038;-87
2023/03/21 10:26:05;;;;;;;15.95;6.45;;;12.00;99.90;;;;;;5002354;28;20470;-87
2023/03/21 10:28:40;;;;;;;9.60;5.20;;;12.00;99.90;;;;;;5022290;28;20398;-86
2023/03/21 10:31:09;;;;;;;11.55;6.38;;;12.10;99.90;;;;;;5003882;28;20022;-87
2023/03/21 10:33:37;;;;;;;11.60;5.38;;;12.10;99.90;;;;;;4999127;28;20021;-87
2023/03/21 10:36:24;;;;;;;12.55;5.07;;;12.20;99.90;;;;;;5003423;28;20018;-87
2023/03/21 10:39:23;;;;;;;14.98;5.40;;;12.20;99.90;;;;;;5006556;28;20033;-87
2023/03/21 10:41:49;;;;;;;11.60;5.38;;;12.20;99.90;;;;;;5001539;28;20167;-87
2023/03/21 10:44:19;;;;;;;10.93;5.32;;;12.30;99.90;;;;;;5020098;28;20034;-87
2023/03/21 10:46:51;;;;;;;10.77;4.93;;;12.30;99.90;;;;;;5002045;28;20048;-87
2023/03/21 10:49:17;;;;;;;10.60;5.22;;;12.40;99.90;;;;;;5000094;28;20033;-87
2023/03/21 10:51:45;;;;;;;15.88;5.10;;;12.50;99.90;;;;;;5003333;28;20081;-87
2023/03/21 10:54:16;;;;;;;9.10;4.65;;;12.60;99.90;;;;;;5003951;28;20445;-86
2023/03/21 10:57:06;;;;;;;8.40;4.25;;;12.70;99.90;;;;;;5004065;28;20050;-86
2023/03/21 10:59:57;;;;;;;11.55;4.50;;;12.80;99.90;;;;;;5013668;28;20061;-87
2023/03/21 11:02:30;;;;;;;13.05;4.70;;;12.80;99.90;;;;;;5001257;28;20038;-86
2023/03/21 11:05:01;;;;;;;14.02;7.18;;;12.80;99.90;;;;;;5002974;28;20044;-86
2023/03/21 11:07:30;;;;;;;8.93;4.97;;;12.90;99.90;;;;;;4989627;28;20576;-87
2023/03/21 11:09:59;;;;;;;10.57;5.10;;;13.00;99.90;;;;;;5009306;28;20022;-87
2023/03/21 11:12:38;;;;;;;10.93;4.65;;;13.10;99.90;;;;;;5009148;28;20038;-87
2023/03/21 11:15:30;;;;;;;7.85;4.60;;;13.20;99.90;;;;;;5009692;28;20030;-87
2023/03/21 11:17:57;;;;;;;6.55;4.22;;;13.20;99.90;;;;;;5027055;28;20034;-87
2023/03/21 11:20:23;;;;;;;9.02;4.18;;;13.20;99.90;;;;;;5007369;28;20042;-87
2023/03/21 11:22:52;;;;;;;13.77;4.10;;;13.30;99.90;;;;;;4991966;28;20031;-87
2023/03/21 11:25:36;;;;;;;10.82;4.00;;;13.30;99.90;;;;;;4991148;28;20022;-87
2023/03/21 11:28:07;;;;;;;7.20;3.17;;;13.30;99.90;;;;;;5022000;28;20043;-86
2023/03/21 11:30:33;;;;;;;9.93;3.90;;;13.40;99.90;;;;;;5026635;28;20496;-86
2023/03/21 11:33:05;;;;;;;7.13;3.03;;;13.50;99.90;;;;;;5009131;28;20038;-86
2023/03/21 11:35:38;;;;;;;10.43;3.92;;;13.70;99.90;;;;;;5007744;28;20026;-88
2023/03/21 11:38:05;;;;;;;7.68;3.10;;;13.70;99.90;;;;;;5005999;28;20034;-85
2023/03/21 11:40:33;;;;;;;7.05;3.03;;;13.70;99.90;;;;;;4992193;28;20022;-87
2023/03/21 11:43:01;;;;;;;7.95;3.80;;;13.80;99.90;;;;;;5004854;28;20030;-86
2023/03/21 11:45:34;;;;;;;12.07;3.55;;;13.80;99.90;;;;;;5009276;28;20057;-86
2023/03/21 11:48:14;;;;;;;11.15;3.63;;;13.90;99.90;;;;;;5007290;28;20038;-86
2023/03/21 11:50:46;;;;;;;8.38;3.08;;;13.90;99.90;;;;;;5004702;28;20026;-86
2023/03/21 11:53:40;;;;;;;9.38;4.18;;;13.90;99.90;;;;;;5008183;28;20034;-86
2023/03/21 11:56:24;;;;;;;13.30;4.25;;;14.00;99.90;;;;;;4999080;28;20027;-87
2023/03/21 11:59:14;;;;;;;6.80;3.00;;;13.90;99.90;;;;;;5019436;28;20030;-87
2023/03/21 12:02:18;;;;;;;9.48;3.33;;;14.00;99.90;;;;;;4998732;28;20058;-87
2023/03/21 12:04:52;;;;;;;7.85;2.60;;;14.00;99.90;;;;;;5010009;28;20069;-88
2023/03/21 12:08:03;;;;;;;9.38;3.42;;;14.00;99.90;;;;;;5009792;28;20465;-87
2023/03/21 12:10:47;;;;;;;10.02;3.22;;;14.10;99.90;;;;;;4934709;29;20142;-87
2023/03/21 12:13:28;;;;;;;9.73;3.88;;;14.10;99.90;;;;;;5001104;28;20041;-87
2023/03/21 12:16:21;;;;;;;12.82;4.30;;;14.10;99.90;;;;;;5007522;28;20037;-86
2023/03/21 12:19:11;;;;;;;8.20;3.55;;;14.20;99.90;;;;;;4995844;28;20022;-86
2023/03/21 12:22:21;;;;;;;8.60;3.40;;;14.20;99.90;;;;;;5008395;28;20042;-86
2023/03/21 12:24:56;;;;;;;10.40;3.53;;;14.30;99.90;;;;;;4968255;28;20084;-86
2023/03/21 12:27:43;;;;;;;7.72;3.40;;;14.40;99.90;;;;;;4998174;28;20042;-87
2023/03/21 12:30:23;;;;;;;9.45;3.50;;;14.40;99.90;;;;;;5013107;28;20495;-87
2023/03/21 12:33:24;;;;;;;10.80;3.15;;;14.50;99.90;;;;;;5002497;28;20049;-86
2023/03/21 12:36:17;;;;;;;9.25;3.80;;;14.40;99.90;;;;;;4982399;28;20038;-86
2023/03/21 12:38:49;;;;;;;10.02;2.78;;;14.40;99.90;;;;;;5008992;28;20592;-85
2023/03/21 12:41:26;;;;;;;6.30;2.55;;;14.40;99.90;;;;;;5001864;28;20138;-86
2023/03/21 12:44:10;;;;;;;7.55;2.85;;;14.40;99.90;;;;;;5010431;28;20030;-86
2023/03/21 12:46:43;;;;;;;5.72;2.65;;;14.50;99.90;;;;;;5011126;28;20029;-85
2023/03/21 12:49:17;;;;;;;6.47;2.75;;;14.60;99.90;;;;;;5005753;28;20038;-85
2023/03/21 12:51:46;;;;;;;7.75;2.63;;;14.70;99.90;;;;;;5010551;28;20057;-85
2023/03/21 12:54:27;;;;;;;7.68;2.95;;;14.90;99.90;;;;;;5011086;28;20445;-87
2023/03/21 12:57:22;;;;;;;5.90;2.80;;;15.10;99.90;;;;;;5011481;28;20057;-85